sensor_id;sensor_type;location;lat;lon;timestamp;temperature;humidity
4809;DHT22;2418;49.930;8.606;2022-12-07T00:01:16;3.70;99.20
4809;DHT22;2418;49.930;8.606;2022-12-07T00:03:44;3.70;99.20
4809;DHT22;2418;49.930;8.606;2022-12-07T00:06:12;3.60;99.20
4809;DHT22;2418;49.930;8.606;2022-12-07T00:08:38;3.60;99.20
4809;DHT22;2418;49.930;8.606;2022-12-07T00:11:09;3.60;99.20
4809;DHT22;2418;49.930;8.606;2022-12-07T00:13:36;3.50;99.20
4809;DHT22;2418;49.930;8.606;2022-12-07T00:16:09;3.50;99.20
4809;DHT22;2418;49.930;8.606;2022-12-07T00:18:36;3.50;99.20
4809;DHT22;2418;49.930;8.606;2022-12-07T00:21:03;3.60;99.20
4809;DHT22;2418;49.930;8.606;2022-12-07T00:23:29;3.60;99.20
4809;DHT22;2418;49.930;8.606;2022-12-07T00:25:55;3.60;99.20
4809;DHT22;2418;49.930;8.606;2022-12-07T00:28:21;3.60;99.20
4809;DHT22;2418;49.930;8.606;2022-12-07T00:30:46;3.60;99.20
4809;DHT22;2418;49.930;8.606;2022-12-07T00:33:12;3.60;99.20
4809;DHT22;2418;49.930;8.606;2022-12-07T00:35:37;3.50;99.20
4809;DHT22;2418;49.930;8.606;2022-12-07T00:38:03;3.60;99.20
4809;DHT22;2418;49.930;8.606;2022-12-07T00:40:28;3.50;99.20
4809;DHT22;2418;49.930;8.606;2022-12-07T00:42:55;3.50;99.20
4809;DHT22;2418;49.930;8.606;2022-12-07T00:45:21;3.50;99.20
4809;DHT22;2418;49.930;8.606;2022-12-07T00:47:46;3.50;99.20
4809;DHT22;2418;49.930;8.606;2022-12-07T00:50:12;3.50;99.20
4809;DHT22;2418;49.930;8.606;2022-12-07T00:52:39;3.50;99.20
4809;DHT22;2418;49.930;8.606;2022-12-07T00:55:05;3.50;99.20
4809;DHT22;2418;49.930;8.606;2022-12-07T00:57:31;3.60;99.20
4809;DHT22;2418;49.930;8.606;2022-12-07T00:59:56;3.60;99.20
4809;DHT22;2418;49.930;8.606;2022-12-07T01:02:23;3.50;99.20
4809;DHT22;2418;49.930;8.606;2022-12-07T01:04:49;3.60;99.20
4809;DHT22;2418;49.930;8.606;2022-12-07T01:07:14;3.60;99.20
4809;DHT22;2418;49.930;8.606;2022-12-07T01:09:40;3.60;99.20
4809;DHT22;2418;49.930;8.606;2022-12-07T01:12:06;3.50;99.20
4809;DHT22;2418;49.930;8.606;2022-12-07T01:14:32;3.50;99.20
4809;DHT22;2418;49.930;8.606;2022-12-07T01:16:57;3.50;99.20
4809;DHT22;2418;49.930;8.606;2022-12-07T01:19:24;3.50;99.20
4809;DHT22;2418;49.930;8.606;2022-12-07T01:21:50;3.50;99.20
4809;DHT22;2418;49.930;8.606;2022-12-07T01:24:15;3.50;99.20
4809;DHT22;2418;49.930;8.606;2022-12-07T01:26:41;3.50;99.20
4809;DHT22;2418;49.930;8.606;2022-12-07T01:29:07;3.50;99.20
4809;DHT22;2418;49.930;8.606;2022-12-07T01:31:33;3.50;99.20
4809;DHT22;2418;49.930;8.606;2022-12-07T01:33:59;3.50;99.20
4809;DHT22;2418;49.930;8.606;2022-12-07T01:38:55;3.40;99.20
4809;DHT22;2418;49.930;8.606;2022-12-07T01:41:23;3.40;99.20
4809;DHT22;2418;49.930;8.606;2022-12-07T01:46:51;3.30;99.20
4809;DHT22;2418;49.930;8.606;2022-12-07T01:49:23;3.20;99.20
4809;DHT22;2418;49.930;8.606;2022-12-07T01:51:51;3.10;99.20
4809;DHT22;2418;49.930;8.606;2022-12-07T01:54:18;3.10;99.20
4809;DHT22;2418;49.930;8.606;2022-12-07T01:56:50;3.20;99.20
4809;DHT22;2418;49.930;8.606;2022-12-07T01:59:18;3.20;99.20
4809;DHT22;2418;49.930;8.606;2022-12-07T02:01:46;3.20;99.20
4809;DHT22;2418;49.930;8.606;2022-12-07T02:04:12;3.40;99.20
4809;DHT22;2418;49.930;8.606;2022-12-07T02:06:38;3.40;99.20
4809;DHT22;2418;49.930;8.606;2022-12-07T02:09:04;3.30;99.20
4809;DHT22;2418;49.930;8.606;2022-12-07T02:11:30;3.40;99.20
4809;DHT22;2418;49.930;8.606;2022-12-07T02:13:56;3.40;99.20
4809;DHT22;2418;49.930;8.606;2022-12-07T02:16:44;3.50;99.20
4809;DHT22;2418;49.930;8.606;2022-12-07T02:31:09;3.60;99.20
4809;DHT22;2418;49.930;8.606;2022-12-07T02:33:45;3.60;99.20
4809;DHT22;2418;49.930;8.606;2022-12-07T02:36:28;3.50;99.20
4809;DHT22;2418;49.930;8.606;2022-12-07T02:39:00;3.60;99.20
4809;DHT22;2418;49.930;8.606;2022-12-07T02:41:40;3.60;99.20
4809;DHT22;2418;49.930;8.606;2022-12-07T02:44:10;3.60;99.20
4809;DHT22;2418;49.930;8.606;2022-12-07T02:46:44;3.60;99.20
4809;DHT22;2418;49.930;8.606;2022-12-07T02:49:12;3.60;99.20
4809;DHT22;2418;49.930;8.606;2022-12-07T02:51:46;3.60;99.20
4809;DHT22;2418;49.930;8.606;2022-12-07T02:54:19;3.60;99.20
4809;DHT22;2418;49.930;8.606;2022-12-07T03:07:44;3.70;99.20
4809;DHT22;2418;49.930;8.606;2022-12-07T03:10:24;3.70;99.20
4809;DHT22;2418;49.930;8.606;2022-12-07T03:13:07;3.70;99.20
4809;DHT22;2418;49.930;8.606;2022-12-07T03:18:25;3.60;99.20
4809;DHT22;2418;49.930;8.606;2022-12-07T03:20:55;3.60;99.20
4809;DHT22;2418;49.930;8.606;2022-12-07T03:23:23;3.60;99.20
4809;DHT22;2418;49.930;8.606;2022-12-07T03:25:55;3.70;99.20
4809;DHT22;2418;49.930;8.606;2022-12-07T03:28:24;3.70;99.20
4809;DHT22;2418;49.930;8.606;2022-12-07T03:31:02;3.70;99.20
4809;DHT22;2418;49.930;8.606;2022-12-07T03:33:53;3.70;99.20
4809;DHT22;2418;49.930;8.606;2022-12-07T03:36:33;3.80;99.20
4809;DHT22;2418;49.930;8.606;2022-12-07T03:41:43;3.70;99.20
4809;DHT22;2418;49.930;8.606;2022-12-07T03:44:08;3.70;99.20
4809;DHT22;2418;49.930;8.606;2022-12-07T03:49:32;3.80;99.20
4809;DHT22;2418;49.930;8.606;2022-12-07T03:54:37;3.80;99.20
4809;DHT22;2418;49.930;8.606;2022-12-07T03:57:05;3.90;99.20
4809;DHT22;2418;49.930;8.606;2022-12-07T03:59:32;3.80;99.20
4809;DHT22;2418;49.930;8.606;2022-12-07T04:02:03;3.80;99.20
4809;DHT22;2418;49.930;8.606;2022-12-07T04:04:29;3.80;99.20
4809;DHT22;2418;49.930;8.606;2022-12-07T04:06:55;3.70;99.20
4809;DHT22;2418;49.930;8.606;2022-12-07T04:09:20;3.80;99.20
4809;DHT22;2418;49.930;8.606;2022-12-07T04:11:46;3.80;99.20
4809;DHT22;2418;49.930;8.606;2022-12-07T04:14:11;3.70;99.20
4809;DHT22;2418;49.930;8.606;2022-12-07T04:16:44;3.70;99.20
4809;DHT22;2418;49.930;8.606;2022-12-07T04:19:10;3.70;99.20
4809;DHT22;2418;49.930;8.606;2022-12-07T04:21:35;3.70;99.20
4809;DHT22;2418;49.930;8.606;2022-12-07T04:24:01;3.70;99.20
4809;DHT22;2418;49.930;8.606;2022-12-07T04:26:27;3.70;99.20
4809;DHT22;2418;49.930;8.606;2022-12-07T04:28:52;3.80;99.20
4809;DHT22;2418;49.930;8.606;2022-12-07T04:31:18;3.80;99.20
4809;DHT22;2418;49.930;8.606;2022-12-07T04:33:44;3.70;99.20
4809;DHT22;2418;49.930;8.606;2022-12-07T04:36:09;3.80;99.20
4809;DHT22;2418;49.930;8.606;2022-12-07T04:38:35;3.80;99.20
4809;DHT22;2418;49.930;8.606;2022-12-07T04:41:08;3.80;99.20
4809;DHT22;2418;49.930;8.606;2022-12-07T04:43:34;3.80;99.20
4809;DHT22;2418;49.930;8.606;2022-12-07T04:46:00;3.80;99.20
4809;DHT22;2418;49.930;8.606;2022-12-07T04:48:26;3.80;99.20
4809;DHT22;2418;49.930;8.606;2022-12-07T04:50:53;3.80;99.20
4809;DHT22;2418;49.930;8.606;2022-12-07T04:53:18;3.80;99.20
4809;DHT22;2418;49.930;8.606;2022-12-07T04:55:45;3.80;99.20
4809;DHT22;2418;49.930;8.606;2022-12-07T04:58:11;3.80;99.20
4809;DHT22;2418;49.930;8.606;2022-12-07T05:00:37;3.80;99.20
4809;DHT22;2418;49.930;8.606;2022-12-07T05:03:03;3.80;99.20
4809;DHT22;2418;49.930;8.606;2022-12-07T05:05:29;3.80;99.20
4809;DHT22;2418;49.930;8.606;2022-12-07T05:07:54;3.80;99.20
4809;DHT22;2418;49.930;8.606;2022-12-07T05:10:20;3.70;99.20
4809;DHT22;2418;49.930;8.606;2022-12-07T05:12:46;3.80;99.20
4809;DHT22;2418;49.930;8.606;2022-12-07T05:15:12;3.80;99.20
4809;DHT22;2418;49.930;8.606;2022-12-07T05:17:37;3.90;99.20
4809;DHT22;2418;49.930;8.606;2022-12-07T05:20:04;3.90;99.20
4809;DHT22;2418;49.930;8.606;2022-12-07T05:22:29;3.90;99.20
4809;DHT22;2418;49.930;8.606;2022-12-07T05:24:55;3.80;99.20
4809;DHT22;2418;49.930;8.606;2022-12-07T05:27:21;3.80;99.20
4809;DHT22;2418;49.930;8.606;2022-12-07T05:29:47;3.80;99.20
4809;DHT22;2418;49.930;8.606;2022-12-07T05:32:12;3.80;99.20
4809;DHT22;2418;49.930;8.606;2022-12-07T05:34:39;3.90;99.20
4809;DHT22;2418;49.930;8.606;2022-12-07T05:37:05;3.80;99.20
4809;DHT22;2418;49.930;8.606;2022-12-07T05:39:30;3.80;99.20
4809;DHT22;2418;49.930;8.606;2022-12-07T05:41:56;3.80;99.20
4809;DHT22;2418;49.930;8.606;2022-12-07T05:44:40;3.90;99.20
4809;DHT22;2418;49.930;8.606;2022-12-07T05:47:07;3.90;99.20
4809;DHT22;2418;49.930;8.606;2022-12-07T05:49:33;3.90;99.20
4809;DHT22;2418;49.930;8.606;2022-12-07T05:51:59;3.90;99.20
4809;DHT22;2418;49.930;8.606;2022-12-07T05:54:24;3.90;99.20
4809;DHT22;2418;49.930;8.606;2022-12-07T05:56:50;3.90;99.20
4809;DHT22;2418;49.930;8.606;2022-12-07T05:59:16;3.90;99.20
4809;DHT22;2418;49.930;8.606;2022-12-07T06:01:50;3.90;99.20
4809;DHT22;2418;49.930;8.606;2022-12-07T06:04:16;3.90;99.20
4809;DHT22;2418;49.930;8.606;2022-12-07T06:06:42;4.00;99.20
4809;DHT22;2418;49.930;8.606;2022-12-07T06:09:09;4.00;99.20
4809;DHT22;2418;49.930;8.606;2022-12-07T06:11:35;4.00;99.20
4809;DHT22;2418;49.930;8.606;2022-12-07T06:14:19;3.90;99.20
4809;DHT22;2418;49.930;8.606;2022-12-07T06:16:45;3.90;99.20
4809;DHT22;2418;49.930;8.606;2022-12-07T06:19:11;3.90;99.20
4809;DHT22;2418;49.930;8.606;2022-12-07T06:21:36;4.00;99.20
4809;DHT22;2418;49.930;8.606;2022-12-07T06:24:02;3.90;99.20
4809;DHT22;2418;49.930;8.606;2022-12-07T06:26:28;3.90;99.20
4809;DHT22;2418;49.930;8.606;2022-12-07T06:28:54;3.90;99.20
4809;DHT22;2418;49.930;8.606;2022-12-07T06:31:21;4.00;99.20
4809;DHT22;2418;49.930;8.606;2022-12-07T06:33:50;4.00;99.20
4809;DHT22;2418;49.930;8.606;2022-12-07T06:36:15;4.00;99.20
4809;DHT22;2418;49.930;8.606;2022-12-07T06:38:41;4.00;99.20
4809;DHT22;2418;49.930;8.606;2022-12-07T06:41:07;4.10;99.20
4809;DHT22;2418;49.930;8.606;2022-12-07T06:43:33;4.00;99.20
4809;DHT22;2418;49.930;8.606;2022-12-07T06:45:59;4.10;99.20
4809;DHT22;2418;49.930;8.606;2022-12-07T06:48:25;4.10;99.20
4809;DHT22;2418;49.930;8.606;2022-12-07T06:50:50;4.10;99.20
4809;DHT22;2418;49.930;8.606;2022-12-07T06:53:16;4.10;99.20
4809;DHT22;2418;49.930;8.606;2022-12-07T06:55:41;4.10;99.20
4809;DHT22;2418;49.930;8.606;2022-12-07T06:58:07;4.10;99.20
4809;DHT22;2418;49.930;8.606;2022-12-07T07:00:33;4.10;99.20
4809;DHT22;2418;49.930;8.606;2022-12-07T07:03:00;4.10;99.20
4809;DHT22;2418;49.930;8.606;2022-12-07T07:05:26;4.10;99.20
4809;DHT22;2418;49.930;8.606;2022-12-07T07:07:52;4.10;99.20
4809;DHT22;2418;49.930;8.606;2022-12-07T07:10:17;4.10;99.20
4809;DHT22;2418;49.930;8.606;2022-12-07T07:12:43;4.10;99.20
4809;DHT22;2418;49.930;8.606;2022-12-07T07:15:10;4.10;99.20
4809;DHT22;2418;49.930;8.606;2022-12-07T07:17:37;4.20;99.20
4809;DHT22;2418;49.930;8.606;2022-12-07T07:20:04;4.20;99.20
4809;DHT22;2418;49.930;8.606;2022-12-07T07:22:31;4.20;99.20
4809;DHT22;2418;49.930;8.606;2022-12-07T07:24:56;4.20;99.20
4809;DHT22;2418;49.930;8.606;2022-12-07T07:27:24;4.10;99.20
4809;DHT22;2418;49.930;8.606;2022-12-07T07:29:50;4.10;99.20
4809;DHT22;2418;49.930;8.606;2022-12-07T07:32:18;4.10;99.20
4809;DHT22;2418;49.930;8.606;2022-12-07T07:34:43;4.10;99.20
4809;DHT22;2418;49.930;8.606;2022-12-07T07:37:09;4.10;99.20
4809;DHT22;2418;49.930;8.606;2022-12-07T07:39:36;4.20;99.20
4809;DHT22;2418;49.930;8.606;2022-12-07T07:42:02;4.20;99.20
4809;DHT22;2418;49.930;8.606;2022-12-07T07:44:28;4.20;99.20
4809;DHT22;2418;49.930;8.606;2022-12-07T07:46:54;4.20;99.20
4809;DHT22;2418;49.930;8.606;2022-12-07T07:49:20;4.30;99.20
4809;DHT22;2418;49.930;8.606;2022-12-07T07:51:46;4.30;99.20
4809;DHT22;2418;49.930;8.606;2022-12-07T07:54:12;4.30;99.20
4809;DHT22;2418;49.930;8.606;2022-12-07T07:56:37;4.30;99.20
4809;DHT22;2418;49.930;8.606;2022-12-07T07:59:03;4.30;99.20
4809;DHT22;2418;49.930;8.606;2022-12-07T08:01:28;4.40;99.20
4809;DHT22;2418;49.930;8.606;2022-12-07T08:03:58;4.40;99.20
4809;DHT22;2418;49.930;8.606;2022-12-07T08:06:24;4.40;99.20
4809;DHT22;2418;49.930;8.606;2022-12-07T08:08:50;4.40;99.20
4809;DHT22;2418;49.930;8.606;2022-12-07T08:11:16;4.40;99.20
4809;DHT22;2418;49.930;8.606;2022-12-07T08:13:41;4.40;99.20
4809;DHT22;2418;49.930;8.606;2022-12-07T08:16:09;4.50;99.20
4809;DHT22;2418;49.930;8.606;2022-12-07T08:18:37;4.50;99.20
4809;DHT22;2418;49.930;8.606;2022-12-07T08:21:04;4.60;99.20
4809;DHT22;2418;49.930;8.606;2022-12-07T08:23:31;4.60;99.20
4809;DHT22;2418;49.930;8.606;2022-12-07T08:26:01;4.70;99.20
4809;DHT22;2418;49.930;8.606;2022-12-07T08:28:28;4.80;99.20
4809;DHT22;2418;49.930;8.606;2022-12-07T08:31:02;4.90;99.20
4809;DHT22;2418;49.930;8.606;2022-12-07T08:33:27;4.90;99.20
4809;DHT22;2418;49.930;8.606;2022-12-07T08:35:53;4.90;99.20
4809;DHT22;2418;49.930;8.606;2022-12-07T08:38:19;4.90;99.20
4809;DHT22;2418;49.930;8.606;2022-12-07T08:40:56;4.90;99.20
4809;DHT22;2418;49.930;8.606;2022-12-07T08:43:24;4.90;99.20
4809;DHT22;2418;49.930;8.606;2022-12-07T08:45:58;4.90;99.20
4809;DHT22;2418;49.930;8.606;2022-12-07T08:48:27;4.90;99.20
4809;DHT22;2418;49.930;8.606;2022-12-07T08:50:53;4.90;99.20
4809;DHT22;2418;49.930;8.606;2022-12-07T08:53:20;4.80;99.20
4809;DHT22;2418;49.930;8.606;2022-12-07T08:55:51;4.70;99.20
4809;DHT22;2418;49.930;8.606;2022-12-07T08:58:17;4.70;99.20
4809;DHT22;2418;49.930;8.606;2022-12-07T09:00:44;4.80;99.20
4809;DHT22;2418;49.930;8.606;2022-12-07T09:03:12;4.90;99.20
4809;DHT22;2418;49.930;8.606;2022-12-07T09:05:39;4.90;99.20
4809;DHT22;2418;49.930;8.606;2022-12-07T09:08:05;4.90;99.20
4809;DHT22;2418;49.930;8.606;2022-12-07T09:10:31;5.00;99.20
4809;DHT22;2418;49.930;8.606;2022-12-07T09:12:59;5.10;99.20
4809;DHT22;2418;49.930;8.606;2022-12-07T09:15:29;5.20;99.20
4809;DHT22;2418;49.930;8.606;2022-12-07T09:17:56;5.30;99.20
4809;DHT22;2418;49.930;8.606;2022-12-07T09:20:22;5.40;99.20
4809;DHT22;2418;49.930;8.606;2022-12-07T09:22:48;5.60;99.20
4809;DHT22;2418;49.930;8.606;2022-12-07T09:25:14;5.50;99.20
4809;DHT22;2418;49.930;8.606;2022-12-07T09:27:40;5.60;99.20
4809;DHT22;2418;49.930;8.606;2022-12-07T09:30:07;5.70;99.20
4809;DHT22;2418;49.930;8.606;2022-12-07T09:32:34;5.80;99.20
4809;DHT22;2418;49.930;8.606;2022-12-07T09:35:00;5.80;99.20
4809;DHT22;2418;49.930;8.606;2022-12-07T09:37:26;5.90;99.20
4809;DHT22;2418;49.930;8.606;2022-12-07T09:39:51;5.80;99.20
4809;DHT22;2418;49.930;8.606;2022-12-07T09:42:37;5.70;99.20
4809;DHT22;2418;49.930;8.606;2022-12-07T09:45:06;5.70;99.20
4809;DHT22;2418;49.930;8.606;2022-12-07T09:47:36;5.60;99.20
4809;DHT22;2418;49.930;8.606;2022-12-07T09:50:11;5.50;99.20
4809;DHT22;2418;49.930;8.606;2022-12-07T09:52:38;5.50;99.20
4809;DHT22;2418;49.930;8.606;2022-12-07T09:55:11;5.50;99.20
4809;DHT22;2418;49.930;8.606;2022-12-07T09:57:37;5.50;99.20
4809;DHT22;2418;49.930;8.606;2022-12-07T10:00:11;5.50;99.20
4809;DHT22;2418;49.930;8.606;2022-12-07T10:02:39;5.60;99.20
4809;DHT22;2418;49.930;8.606;2022-12-07T10:05:42;5.70;99.20
4809;DHT22;2418;49.930;8.606;2022-12-07T10:08:11;5.70;99.20
4809;DHT22;2418;49.930;8.606;2022-12-07T10:10:39;5.80;99.20
4809;DHT22;2418;49.930;8.606;2022-12-07T10:13:08;6.00;99.20
4809;DHT22;2418;49.930;8.606;2022-12-07T10:15:55;6.20;99.20
4809;DHT22;2418;49.930;8.606;2022-12-07T10:18:31;6.40;99.20
4809;DHT22;2418;49.930;8.606;2022-12-07T10:21:26;6.50;99.20
4809;DHT22;2418;49.930;8.606;2022-12-07T10:24:13;6.80;99.20
4809;DHT22;2418;49.930;8.606;2022-12-07T10:26:52;6.90;99.20
4809;DHT22;2418;49.930;8.606;2022-12-07T10:29:37;6.80;99.20
4809;DHT22;2418;49.930;8.606;2022-12-07T10:35:28;6.80;99.20
4809;DHT22;2418;49.930;8.606;2022-12-07T10:37:58;6.90;99.20
4809;DHT22;2418;49.930;8.606;2022-12-07T10:40:33;7.10;99.20
4809;DHT22;2418;49.930;8.606;2022-12-07T10:54:51;6.70;99.20
4809;DHT22;2418;49.930;8.606;2022-12-07T11:00:23;6.40;99.20
4809;DHT22;2418;49.930;8.606;2022-12-07T11:06:25;6.20;99.20
4809;DHT22;2418;49.930;8.606;2022-12-07T11:08:54;6.30;99.20
4809;DHT22;2418;49.930;8.606;2022-12-07T11:20:18;6.00;99.20
4809;DHT22;2418;49.930;8.606;2022-12-07T11:22:51;6.00;99.20
4809;DHT22;2418;49.930;8.606;2022-12-07T11:25:34;6.10;99.20
4809;DHT22;2418;49.930;8.606;2022-12-07T11:28:26;6.20;99.20
4809;DHT22;2418;49.930;8.606;2022-12-07T11:31:24;6.30;99.20
4809;DHT22;2418;49.930;8.606;2022-12-07T11:36:44;6.50;99.20
4809;DHT22;2418;49.930;8.606;2022-12-07T11:39:36;6.70;99.20
4809;DHT22;2418;49.930;8.606;2022-12-07T11:42:09;7.00;99.20
4809;DHT22;2418;49.930;8.606;2022-12-07T11:47:48;7.30;99.20
4809;DHT22;2418;49.930;8.606;2022-12-07T11:50:27;7.20;99.20
4809;DHT22;2418;49.930;8.606;2022-12-07T11:55:53;7.10;99.20
4809;DHT22;2418;49.930;8.606;2022-12-07T12:03:57;6.90;99.20
4809;DHT22;2418;49.930;8.606;2022-12-07T12:06:25;6.90;99.20
4809;DHT22;2418;49.930;8.606;2022-12-07T12:23:24;7.30;99.20
4809;DHT22;2418;49.930;8.606;2022-12-07T12:25:56;7.20;99.20
4809;DHT22;2418;49.930;8.606;2022-12-07T12:31:14;7.30;99.20
4809;DHT22;2418;49.930;8.606;2022-12-07T12:33:54;7.40;99.20
4809;DHT22;2418;49.930;8.606;2022-12-07T12:36:46;7.40;99.20
4809;DHT22;2418;49.930;8.606;2022-12-07T12:39:35;7.30;99.20
4809;DHT22;2418;49.930;8.606;2022-12-07T12:42:01;7.20;99.20
4809;DHT22;2418;49.930;8.606;2022-12-07T12:47:03;7.20;99.20
4809;DHT22;2418;49.930;8.606;2022-12-07T12:49:43;7.10;99.20
4809;DHT22;2418;49.930;8.606;2022-12-07T12:57:35;7.10;99.20
4809;DHT22;2418;49.930;8.606;2022-12-07T13:00:22;7.10;99.20
4809;DHT22;2418;49.930;8.606;2022-12-07T13:02:50;7.10;99.20
4809;DHT22;2418;49.930;8.606;2022-12-07T13:05:28;7.10;99.20
4809;DHT22;2418;49.930;8.606;2022-12-07T13:18:39;7.30;99.20
4809;DHT22;2418;49.930;8.606;2022-12-07T13:29:20;7.80;99.20
4809;DHT22;2418;49.930;8.606;2022-12-07T13:31:49;7.70;99.20
4809;DHT22;2418;49.930;8.606;2022-12-07T13:37:15;7.70;99.20
4809;DHT22;2418;49.930;8.606;2022-12-07T13:39:48;7.80;99.20
4809;DHT22;2418;49.930;8.606;2022-12-07T13:42:31;7.90;99.20
4809;DHT22;2418;49.930;8.606;2022-12-07T13:45:00;7.90;99.20
4809;DHT22;2418;49.930;8.606;2022-12-07T13:47:36;8.00;99.20
4809;DHT22;2418;49.930;8.606;2022-12-07T13:50:29;8.00;99.20
4809;DHT22;2418;49.930;8.606;2022-12-07T13:52:59;7.90;99.20
4809;DHT22;2418;49.930;8.606;2022-12-07T13:55:27;7.80;99.20
4809;DHT22;2418;49.930;8.606;2022-12-07T13:57:57;7.70;99.20
4809;DHT22;2418;49.930;8.606;2022-12-07T14:00:26;7.40;99.20
4809;DHT22;2418;49.930;8.606;2022-12-07T14:05:44;7.10;99.20
4809;DHT22;2418;49.930;8.606;2022-12-07T14:13:37;7.30;99.20
4809;DHT22;2418;49.930;8.606;2022-12-07T14:16:23;7.20;99.20
4809;DHT22;2418;49.930;8.606;2022-12-07T14:18:54;7.10;99.20
4809;DHT22;2418;49.930;8.606;2022-12-07T14:21:23;7.00;99.20
4809;DHT22;2418;49.930;8.606;2022-12-07T14:24:28;7.10;99.20
4809;DHT22;2418;49.930;8.606;2022-12-07T14:26:54;7.00;99.20
4809;DHT22;2418;49.930;8.606;2022-12-07T14:29:30;7.00;99.20
4809;DHT22;2418;49.930;8.606;2022-12-07T14:32:22;7.00;99.20
4809;DHT22;2418;49.930;8.606;2022-12-07T14:35:03;7.00;99.20
4809;DHT22;2418;49.930;8.606;2022-12-07T14:37:33;7.00;99.20
4809;DHT22;2418;49.930;8.606;2022-12-07T14:40:00;6.90;99.20
4809;DHT22;2418;49.930;8.606;2022-12-07T14:42:28;7.00;99.20
4809;DHT22;2418;49.930;8.606;2022-12-07T14:44:55;6.90;99.20
4809;DHT22;2418;49.930;8.606;2022-12-07T14:47:22;6.80;99.20
4809;DHT22;2418;49.930;8.606;2022-12-07T14:49:49;6.70;99.20
4809;DHT22;2418;49.930;8.606;2022-12-07T14:52:21;6.60;99.20
4809;DHT22;2418;49.930;8.606;2022-12-07T14:54:50;6.50;99.20
4809;DHT22;2418;49.930;8.606;2022-12-07T14:57:16;6.50;99.20
4809;DHT22;2418;49.930;8.606;2022-12-07T14:59:42;6.50;99.20
4809;DHT22;2418;49.930;8.606;2022-12-07T15:02:11;6.40;99.20
4809;DHT22;2418;49.930;8.606;2022-12-07T15:04:40;6.30;99.20
4809;DHT22;2418;49.930;8.606;2022-12-07T15:07:20;6.30;99.20
4809;DHT22;2418;49.930;8.606;2022-12-07T15:09:49;6.20;99.20
4809;DHT22;2418;49.930;8.606;2022-12-07T15:12:15;5.90;99.20
4809;DHT22;2418;49.930;8.606;2022-12-07T15:14:40;5.70;99.20
4809;DHT22;2418;49.930;8.606;2022-12-07T15:17:09;5.50;99.20
4809;DHT22;2418;49.930;8.606;2022-12-07T15:19:34;5.40;99.20
4809;DHT22;2418;49.930;8.606;2022-12-07T15:22:00;5.20;99.20
4809;DHT22;2418;49.930;8.606;2022-12-07T15:24:26;5.20;99.20
4809;DHT22;2418;49.930;8.606;2022-12-07T15:26:54;5.00;99.20
4809;DHT22;2418;49.930;8.606;2022-12-07T15:29:20;5.10;99.20
4809;DHT22;2418;49.930;8.606;2022-12-07T15:31:52;5.10;99.20
4809;DHT22;2418;49.930;8.606;2022-12-07T15:34:18;5.00;99.20
4809;DHT22;2418;49.930;8.606;2022-12-07T15:36:43;5.00;99.20
4809;DHT22;2418;49.930;8.606;2022-12-07T15:39:10;4.90;99.20
4809;DHT22;2418;49.930;8.606;2022-12-07T15:41:36;4.90;99.20
4809;DHT22;2418;49.930;8.606;2022-12-07T15:44:03;4.90;99.20
4809;DHT22;2418;49.930;8.606;2022-12-07T15:46:47;4.90;99.20
4809;DHT22;2418;49.930;8.606;2022-12-07T15:49:16;4.90;99.20
4809;DHT22;2418;49.930;8.606;2022-12-07T15:51:43;4.90;99.20
4809;DHT22;2418;49.930;8.606;2022-12-07T15:54:23;4.90;99.20
4809;DHT22;2418;49.930;8.606;2022-12-07T15:56:49;4.90;99.20
4809;DHT22;2418;49.930;8.606;2022-12-07T15:59:16;4.90;99.20
4809;DHT22;2418;49.930;8.606;2022-12-07T16:01:43;4.90;99.20
4809;DHT22;2418;49.930;8.606;2022-12-07T16:04:09;4.90;99.20
4809;DHT22;2418;49.930;8.606;2022-12-07T16:06:34;4.90;99.20
4809;DHT22;2418;49.930;8.606;2022-12-07T16:09:01;4.90;99.20
4809;DHT22;2418;49.930;8.606;2022-12-07T16:11:42;5.00;99.20
4809;DHT22;2418;49.930;8.606;2022-12-07T16:14:09;5.00;99.20
4809;DHT22;2418;49.930;8.606;2022-12-07T16:16:35;5.10;99.20
4809;DHT22;2418;49.930;8.606;2022-12-07T16:19:01;5.00;99.20
4809;DHT22;2418;49.930;8.606;2022-12-07T16:21:28;5.00;99.20
4809;DHT22;2418;49.930;8.606;2022-12-07T16:23:53;5.00;99.20
4809;DHT22;2418;49.930;8.606;2022-12-07T16:26:21;4.90;99.20
4809;DHT22;2418;49.930;8.606;2022-12-07T16:28:51;4.90;99.20
4809;DHT22;2418;49.930;8.606;2022-12-07T16:31:19;4.90;99.20
4809;DHT22;2418;49.930;8.606;2022-12-07T16:33:47;4.80;99.20
4809;DHT22;2418;49.930;8.606;2022-12-07T16:36:15;4.70;99.20
4809;DHT22;2418;49.930;8.606;2022-12-07T16:38:42;4.60;99.20
4809;DHT22;2418;49.930;8.606;2022-12-07T16:41:08;4.60;99.20
4809;DHT22;2418;49.930;8.606;2022-12-07T16:43:36;4.60;99.20
4809;DHT22;2418;49.930;8.606;2022-12-07T16:46:03;4.60;99.20
4809;DHT22;2418;49.930;8.606;2022-12-07T16:48:28;4.60;99.20
4809;DHT22;2418;49.930;8.606;2022-12-07T16:50:54;4.60;99.20
4809;DHT22;2418;49.930;8.606;2022-12-07T16:53:22;4.60;99.20
4809;DHT22;2418;49.930;8.606;2022-12-07T16:55:50;4.60;99.20
4809;DHT22;2418;49.930;8.606;2022-12-07T16:58:17;4.60;99.20
4809;DHT22;2418;49.930;8.606;2022-12-07T17:00:45;4.60;99.20
4809;DHT22;2418;49.930;8.606;2022-12-07T17:03:11;4.60;99.20
4809;DHT22;2418;49.930;8.606;2022-12-07T17:05:42;4.50;99.20
4809;DHT22;2418;49.930;8.606;2022-12-07T17:08:09;4.50;99.20
4809;DHT22;2418;49.930;8.606;2022-12-07T17:10:36;4.50;99.20
4809;DHT22;2418;49.930;8.606;2022-12-07T17:13:04;4.40;99.20
4809;DHT22;2418;49.930;8.606;2022-12-07T17:16:02;4.40;99.20
4809;DHT22;2418;49.930;8.606;2022-12-07T17:18:33;4.40;99.20
4809;DHT22;2418;49.930;8.606;2022-12-07T17:21:07;4.40;99.20
4809;DHT22;2418;49.930;8.606;2022-12-07T17:23:33;4.30;99.20
4809;DHT22;2418;49.930;8.606;2022-12-07T17:26:23;4.30;99.20
4809;DHT22;2418;49.930;8.606;2022-12-07T17:28:49;4.30;99.20
4809;DHT22;2418;49.930;8.606;2022-12-07T17:31:17;4.30;99.20
4809;DHT22;2418;49.930;8.606;2022-12-07T17:33:43;4.30;99.20
4809;DHT22;2418;49.930;8.606;2022-12-07T17:36:17;4.30;99.20
4809;DHT22;2418;49.930;8.606;2022-12-07T17:38:43;4.30;99.20
4809;DHT22;2418;49.930;8.606;2022-12-07T17:41:23;4.30;99.20
4809;DHT22;2418;49.930;8.606;2022-12-07T17:44:13;4.30;99.20
4809;DHT22;2418;49.930;8.606;2022-12-07T17:46:40;4.30;99.20
4809;DHT22;2418;49.930;8.606;2022-12-07T17:49:07;4.30;99.20
4809;DHT22;2418;49.930;8.606;2022-12-07T17:51:34;4.20;99.20
4809;DHT22;2418;49.930;8.606;2022-12-07T17:54:19;4.20;99.20
4809;DHT22;2418;49.930;8.606;2022-12-07T17:56:47;4.20;99.20
4809;DHT22;2418;49.930;8.606;2022-12-07T17:59:14;4.20;99.20
4809;DHT22;2418;49.930;8.606;2022-12-07T18:01:41;4.20;99.20
4809;DHT22;2418;49.930;8.606;2022-12-07T18:04:06;4.20;99.20
4809;DHT22;2418;49.930;8.606;2022-12-07T18:06:33;4.20;99.20
4809;DHT22;2418;49.930;8.606;2022-12-07T18:08:59;4.20;99.20
4809;DHT22;2418;49.930;8.606;2022-12-07T18:11:27;4.20;99.20
4809;DHT22;2418;49.930;8.606;2022-12-07T18:13:53;4.20;99.20
4809;DHT22;2418;49.930;8.606;2022-12-07T18:16:21;4.20;99.20
4809;DHT22;2418;49.930;8.606;2022-12-07T18:18:48;4.20;99.20
4809;DHT22;2418;49.930;8.606;2022-12-07T18:21:17;4.10;99.20
4809;DHT22;2418;49.930;8.606;2022-12-07T18:23:44;4.20;99.20
4809;DHT22;2418;49.930;8.606;2022-12-07T18:26:11;4.10;99.20
4809;DHT22;2418;49.930;8.606;2022-12-07T18:28:38;4.10;99.20
4809;DHT22;2418;49.930;8.606;2022-12-07T18:31:05;4.10;99.20
4809;DHT22;2418;49.930;8.606;2022-12-07T18:33:31;4.10;99.20
4809;DHT22;2418;49.930;8.606;2022-12-07T18:35:58;4.10;99.20
4809;DHT22;2418;49.930;8.606;2022-12-07T18:38:26;4.00;99.20
4809;DHT22;2418;49.930;8.606;2022-12-07T18:40:59;4.00;99.20
4809;DHT22;2418;49.930;8.606;2022-12-07T18:43:25;4.00;99.20
4809;DHT22;2418;49.930;8.606;2022-12-07T18:45:52;4.00;99.20
4809;DHT22;2418;49.930;8.606;2022-12-07T18:48:19;3.90;99.20
4809;DHT22;2418;49.930;8.606;2022-12-07T18:50:47;3.90;99.20